sensor_id;sensor_type;location;lat;lon;timestamp;pressure;altitude;pressure_sealevel;temperature;humidity
59513;BME280;45330;51.634;5.562;2023-03-14T00:01:45;98886.66;;;10.18;100.00
59513;BME280;45330;51.634;5.562;2023-03-14T00:04:11;98889.41;;;10.13;100.00
59513;BME280;45330;51.634;5.562;2023-03-14T00:06:36;98875.91;;;10.03;100.00
59513;BME280;45330;51.634;5.562;2023-03-14T00:09:02;98889.53;;;10.10;100.00
59513;BME280;45330;51.634;5.562;2023-03-14T00:11:28;98877.75;;;10.00;100.00
59513;BME280;45330;51.634;5.562;2023-03-14T00:13:54;98892.13;;;10.10;100.00
59513;BME280;45330;51.634;5.562;2023-03-14T00:16:20;98879.84;;;10.13;100.00
59513;BME280;45330;51.634;5.562;2023-03-14T00:18:46;98882.13;;;10.23;100.00
59513;BME280;45330;51.634;5.562;2023-03-14T00:21:12;98872.19;;;10.10;100.00
59513;BME280;45330;51.634;5.562;2023-03-14T00:23:39;98887.66;;;10.13;100.00
59513;BME280;45330;51.634;5.562;2023-03-14T00:26:13;98887.84;;;10.09;100.00
59513;BME280;45330;51.634;5.562;2023-03-14T00:28:40;98876.09;;;9.97;100.00
59513;BME280;45330;51.634;5.562;2023-03-14T00:31:06;98894.72;;;10.10;100.00
59513;BME280;45330;51.634;5.562;2023-03-14T00:33:33;98902.41;;;10.13;100.00
59513;BME280;45330;51.634;5.562;2023-03-14T00:36:04;98905.97;;;10.10;100.00
59513;BME280;45330;51.634;5.562;2023-03-14T00:38:30;98900.41;;;9.96;100.00
59513;BME280;45330;51.634;5.562;2023-03-14T00:40:56;98898.81;;;9.92;100.00
59513;BME280;45330;51.634;5.562;2023-03-14T00:43:22;98916.47;;;10.07;100.00
59513;BME280;45330;51.634;5.562;2023-03-14T00:45:49;98903.66;;;10.03;100.00
59513;BME280;45330;51.634;5.562;2023-03-14T00:48:14;98911.75;;;10.19;100.00
59513;BME280;45330;51.634;5.562;2023-03-14T00:50:40;98912.53;;;10.21;100.00
59513;BME280;45330;51.634;5.562;2023-03-14T00:53:05;98925.47;;;10.22;100.00
59513;BME280;45330;51.634;5.562;2023-03-14T00:55:31;98919.31;;;10.25;100.00
59513;BME280;45330;51.634;5.562;2023-03-14T00:57:56;98924.41;;;10.28;100.00
59513;BME280;45330;51.634;5.562;2023-03-14T01:00:22;98906.53;;;10.19;100.00
59513;BME280;45330;51.634;5.562;2023-03-14T01:02:47;98916.03;;;10.20;100.00
59513;BME280;45330;51.634;5.562;2023-03-14T01:05:13;98914.97;;;10.25;100.00
59513;BME280;45330;51.634;5.562;2023-03-14T01:07:38;98902.81;;;10.26;100.00
59513;BME280;45330;51.634;5.562;2023-03-14T01:10:05;98913.31;;;10.23;100.00
59513;BME280;45330;51.634;5.562;2023-03-14T01:12:31;98897.34;;;10.10;100.00
59513;BME280;45330;51.634;5.562;2023-03-14T01:14:56;98911.03;;;10.13;100.00
59513;BME280;45330;51.634;5.562;2023-03-14T01:17:22;98904.44;;;10.05;100.00
59513;BME280;45330;51.634;5.562;2023-03-14T01:19:47;98908.94;;;10.00;100.00
59513;BME280;45330;51.634;5.562;2023-03-14T01:22:13;98896.88;;;9.99;100.00
59513;BME280;45330;51.634;5.562;2023-03-14T01:24:38;98894.41;;;9.94;100.00
59513;BME280;45330;51.634;5.562;2023-03-14T01:27:03;98888.72;;;9.83;100.00
59513;BME280;45330;51.634;5.562;2023-03-14T01:29:29;98885.13;;;9.87;100.00
59513;BME280;45330;51.634;5.562;2023-03-14T01:31:55;98880.00;;;9.85;100.00
59513;BME280;45330;51.634;5.562;2023-03-14T01:34:20;98887.47;;;9.94;100.00
59513;BME280;45330;51.634;5.562;2023-03-14T01:36:46;98891.59;;;10.00;100.00
59513;BME280;45330;51.634;5.562;2023-03-14T01:39:11;98889.06;;;9.99;100.00
59513;BME280;45330;51.634;5.562;2023-03-14T01:41:38;98865.88;;;9.92;100.00
59513;BME280;45330;51.634;5.562;2023-03-14T01:44:04;98877.75;;;10.00;100.00
59513;BME280;45330;51.634;5.562;2023-03-14T01:46:43;98882.09;;;9.99;100.00
59513;BME280;45330;51.634;5.562;2023-03-14T01:49:24;98854.84;;;9.86;100.00
59513;BME280;45330;51.634;5.562;2023-03-14T01:51:53;98873.03;;;9.86;100.00
59513;BME280;45330;51.634;5.562;2023-03-14T01:57:26;98844.09;;;9.71;100.00
59513;BME280;45330;51.634;5.562;2023-03-14T02:00:15;98855.59;;;9.89;100.00
59513;BME280;45330;51.634;5.562;2023-03-14T02:02:45;98865.34;;;9.83;100.00
59513;BME280;45330;51.634;5.562;2023-03-14T02:05:12;98858.56;;;9.78;100.00
59513;BME280;45330;51.634;5.562;2023-03-14T02:07:46;98862.75;;;9.83;100.00
59513;BME280;45330;51.634;5.562;2023-03-14T02:10:14;98844.16;;;9.70;100.00
59513;BME280;45330;51.634;5.562;2023-03-14T02:12:41;98857.91;;;9.73;100.00
59513;BME280;45330;51.634;5.562;2023-03-14T02:15:07;98843.50;;;9.63;100.00
59513;BME280;45330;51.634;5.562;2023-03-14T02:17:33;98855.38;;;9.70;100.00
59513;BME280;45330;51.634;5.562;2023-03-14T02:22:35;98852.75;;;9.72;100.00
59513;BME280;45330;51.634;5.562;2023-03-14T02:25:14;98863.88;;;9.75;100.00
59513;BME280;45330;51.634;5.562;2023-03-14T02:27:42;98848.66;;;9.65;100.00
59513;BME280;45330;51.634;5.562;2023-03-14T02:30:15;98861.09;;;9.55;100.00
59513;BME280;45330;51.634;5.562;2023-03-14T02:32:43;98849.44;;;9.41;100.00
59513;BME280;45330;51.634;5.562;2023-03-14T02:35:12;98853.09;;;9.36;100.00
59513;BME280;45330;51.634;5.562;2023-03-14T02:37:43;98837.47;;;9.37;100.00
59513;BME280;45330;51.634;5.562;2023-03-14T02:40:11;98847.84;;;9.37;100.00
59513;BME280;45330;51.634;5.562;2023-03-14T02:42:37;98835.66;;;9.39;100.00
59513;BME280;45330;51.634;5.562;2023-03-14T02:47:34;98842.66;;;9.37;100.00
59513;BME280;45330;51.634;5.562;2023-03-14T02:50:06;98846.03;;;9.41;100.00
59513;BME280;45330;51.634;5.562;2023-03-14T02:52:33;98831.44;;;9.37;100.00
59513;BME280;45330;51.634;5.562;2023-03-14T02:54:59;98849.19;;;9.49;100.00
59513;BME280;45330;51.634;5.562;2023-03-14T02:57:24;98843.75;;;9.57;100.00
59513;BME280;45330;51.634;5.562;2023-03-14T02:59:49;98811.28;;;9.43;100.00
59513;BME280;45330;51.634;5.562;2023-03-14T03:02:15;98834.06;;;9.60;100.00
59513;BME280;45330;51.634;5.562;2023-03-14T03:04:41;98830.53;;;9.63;100.00
59513;BME280;45330;51.634;5.562;2023-03-14T03:07:06;98832.25;;;9.64;100.00
59513;BME280;45330;51.634;5.562;2023-03-14T03:09:31;98823.81;;;9.57;100.00
59513;BME280;45330;51.634;5.562;2023-03-14T03:11:57;98849.47;;;9.67;100.00
59513;BME280;45330;51.634;5.562;2023-03-14T03:14:22;98833.25;;;9.60;100.00
59513;BME280;45330;51.634;5.562;2023-03-14T03:16:48;98829.63;;;9.64;100.00
59513;BME280;45330;51.634;5.562;2023-03-14T03:19:13;98831.53;;;9.59;100.00
59513;BME280;45330;51.634;5.562;2023-03-14T03:21:39;98838.25;;;9.66;100.00
59513;BME280;45330;51.634;5.562;2023-03-14T03:24:08;98846.94;;;9.65;100.00
59513;BME280;45330;51.634;5.562;2023-03-14T03:26:36;98823.84;;;9.56;100.00
59513;BME280;45330;51.634;5.562;2023-03-14T03:29:02;98833.06;;;9.65;100.00
59513;BME280;45330;51.634;5.562;2023-03-14T03:31:27;98828.69;;;9.67;100.00
59513;BME280;45330;51.634;5.562;2023-03-14T03:33:53;98809.09;;;9.58;100.00
59513;BME280;45330;51.634;5.562;2023-03-14T03:36:24;98815.22;;;9.55;100.00
59513;BME280;45330;51.634;5.562;2023-03-14T03:38:50;98829.63;;;9.64;100.00
59513;BME280;45330;51.634;5.562;2023-03-14T03:41:16;98836.53;;;9.65;100.00
59513;BME280;45330;51.634;5.562;2023-03-14T03:43:41;98818.56;;;9.59;100.00
59513;BME280;45330;51.634;5.562;2023-03-14T03:46:07;98829.75;;;9.61;100.00
59513;BME280;45330;51.634;5.562;2023-03-14T03:48:34;98821.25;;;9.56;100.00
59513;BME280;45330;51.634;5.562;2023-03-14T03:51:00;98819.25;;;9.64;100.00
59513;BME280;45330;51.634;5.562;2023-03-14T03:53:25;98814.94;;;9.63;100.00
59513;BME280;45330;51.634;5.562;2023-03-14T03:55:51;98815.88;;;9.62;100.00
59513;BME280;45330;51.634;5.562;2023-03-14T03:58:16;98795.53;;;9.50;100.00
59513;BME280;45330;51.634;5.562;2023-03-14T04:00:41;98806.63;;;9.53;100.00
59513;BME280;45330;51.634;5.562;2023-03-14T04:03:07;98806.69;;;9.52;100.00
59513;BME280;45330;51.634;5.562;2023-03-14T04:05:32;98809.28;;;9.52;100.00
59513;BME280;45330;51.634;5.562;2023-03-14T04:07:59;98794.94;;;9.41;100.00
59513;BME280;45330;51.634;5.562;2023-03-14T04:10:24;98813.63;;;9.51;100.00
59513;BME280;45330;51.634;5.562;2023-03-14T04:12:50;98803.31;;;9.50;100.00
59513;BME280;45330;51.634;5.562;2023-03-14T04:15:15;98805.84;;;9.51;100.00
59513;BME280;45330;51.634;5.562;2023-03-14T04:17:41;98813.69;;;9.50;100.00
59513;BME280;45330;51.634;5.562;2023-03-14T04:20:07;98799.28;;;9.41;100.00
59513;BME280;45330;51.634;5.562;2023-03-14T04:22:36;98794.03;;;9.42;100.00
59513;BME280;45330;51.634;5.562;2023-03-14T04:25:01;98808.03;;;9.38;100.00
59513;BME280;45330;51.634;5.562;2023-03-14T04:27:28;98808.22;;;9.32;100.00
59513;BME280;45330;51.634;5.562;2023-03-14T04:29:54;98806.59;;;9.30;100.00
59513;BME280;45330;51.634;5.562;2023-03-14T04:32:19;98795.63;;;9.21;100.00
59513;BME280;45330;51.634;5.562;2023-03-14T04:34:45;98811.09;;;9.24;100.00
59513;BME280;45330;51.634;5.562;2023-03-14T04:37:10;98802.31;;;9.29;100.00
59513;BME280;45330;51.634;5.562;2023-03-14T04:39:35;98781.09;;;9.16;100.00
59513;BME280;45330;51.634;5.562;2023-03-14T04:42:01;98788.66;;;9.22;100.00
59513;BME280;45330;51.634;5.562;2023-03-14T04:44:26;98790.97;;;9.31;100.00
59513;BME280;45330;51.634;5.562;2023-03-14T04:46:52;98788.44;;;9.30;100.00
59513;BME280;45330;51.634;5.562;2023-03-14T04:49:17;98776.47;;;9.24;100.00
59513;BME280;45330;51.634;5.562;2023-03-14T04:51:42;98773.81;;;9.27;100.00
59513;BME280;45330;51.634;5.562;2023-03-14T04:54:08;98783.06;;;9.34;100.00
59513;BME280;45330;51.634;5.562;2023-03-14T04:56:34;98784.06;;;9.30;100.00
59513;BME280;45330;51.634;5.562;2023-03-14T04:58:59;98792.03;;;9.25;100.00
59513;BME280;45330;51.634;5.562;2023-03-14T05:01:25;98776.97;;;9.10;100.00
59513;BME280;45330;51.634;5.562;2023-03-14T05:03:50;98794.91;;;9.16;100.00
59513;BME280;45330;51.634;5.562;2023-03-14T05:06:15;98805.34;;;9.15;100.00
59513;BME280;45330;51.634;5.562;2023-03-14T05:08:41;98801.06;;;9.14;100.00
59513;BME280;45330;51.634;5.562;2023-03-14T05:11:09;98811.53;;;9.10;100.00
59513;BME280;45330;51.634;5.562;2023-03-14T05:13:35;98797.31;;;8.96;100.00
59513;BME280;45330;51.634;5.562;2023-03-14T05:16:08;98780.63;;;8.78;100.00
59513;BME280;45330;51.634;5.562;2023-03-14T05:18:34;98775.72;;;8.68;100.00
59513;BME280;45330;51.634;5.562;2023-03-14T05:21:00;98788.69;;;8.68;100.00
59513;BME280;45330;51.634;5.562;2023-03-14T05:23:26;98779.88;;;8.46;100.00
59513;BME280;45330;51.634;5.562;2023-03-14T05:25:51;98795.50;;;8.43;100.00
59513;BME280;45330;51.634;5.562;2023-03-14T05:28:16;98768.25;;;8.29;100.00
59513;BME280;45330;51.634;5.562;2023-03-14T05:30:42;98775.22;;;8.27;100.00
59513;BME280;45330;51.634;5.562;2023-03-14T05:33:07;98788.03;;;8.32;100.00
59513;BME280;45330;51.634;5.562;2023-03-14T05:35:32;98772.69;;;8.24;100.00
59513;BME280;45330;51.634;5.562;2023-03-14T05:37:58;98789.06;;;8.26;100.00
59513;BME280;45330;51.634;5.562;2023-03-14T05:40:23;98781.38;;;8.23;100.00
59513;BME280;45330;51.634;5.562;2023-03-14T05:42:49;98768.53;;;8.20;100.00
59513;BME280;45330;51.634;5.562;2023-03-14T05:45:14;98783.06;;;8.26;100.00
59513;BME280;45330;51.634;5.562;2023-03-14T05:47:40;98765.13;;;8.18;100.00
59513;BME280;45330;51.634;5.562;2023-03-14T05:50:05;98777.72;;;8.30;100.00
59513;BME280;45330;51.634;5.562;2023-03-14T05:52:31;98775.97;;;8.31;100.00
59513;BME280;45330;51.634;5.562;2023-03-14T05:54:56;98761.28;;;8.31;100.00
59513;BME280;45330;51.634;5.562;2023-03-14T05:57:22;98751.09;;;8.25;100.00
59513;BME280;45330;51.634;5.562;2023-03-14T05:59:47;98763.00;;;8.31;100.00
59513;BME280;45330;51.634;5.562;2023-03-14T06:02:12;98747.50;;;8.29;100.00
59513;BME280;45330;51.634;5.562;2023-03-14T06:04:38;98746.72;;;8.27;100.00
59513;BME280;45330;51.634;5.562;2023-03-14T06:07:03;98749.94;;;8.34;100.00
59513;BME280;45330;51.634;5.562;2023-03-14T06:09:29;98749.84;;;8.38;100.00
59513;BME280;45330;51.634;5.562;2023-03-14T06:11:54;98757.59;;;8.38;100.00
59513;BME280;45330;51.634;5.562;2023-03-14T06:14:19;98736.25;;;8.30;100.00
59513;BME280;45330;51.634;5.562;2023-03-14T06:16:45;98738.94;;;8.27;100.00
59513;BME280;45330;51.634;5.562;2023-03-14T06:19:10;98762.56;;;8.46;100.00
59513;BME280;45330;51.634;5.562;2023-03-14T06:21:37;98773.56;;;8.54;100.00
59513;BME280;45330;51.634;5.562;2023-03-14T06:24:02;98755.66;;;8.47;100.00
59513;BME280;45330;51.634;5.562;2023-03-14T06:26:28;98755.47;;;8.53;100.00
59513;BME280;45330;51.634;5.562;2023-03-14T06:28:54;98752.91;;;8.51;100.00
59513;BME280;45330;51.634;5.562;2023-03-14T06:31:19;98768.94;;;8.64;100.00
59513;BME280;45330;51.634;5.562;2023-03-14T06:33:45;98772.22;;;8.69;100.00
59513;BME280;45330;51.634;5.562;2023-03-14T06:36:10;98773.84;;;8.72;100.00
59513;BME280;45330;51.634;5.562;2023-03-14T06:38:35;98774.63;;;8.75;100.00
59513;BME280;45330;51.634;5.562;2023-03-14T06:41:05;98768.66;;;8.72;100.00
59513;BME280;45330;51.634;5.562;2023-03-14T06:43:30;98764.34;;;8.72;100.00
59513;BME280;45330;51.634;5.562;2023-03-14T06:45:56;98755.81;;;8.69;100.00
59513;BME280;45330;51.634;5.562;2023-03-14T06:48:21;98763.25;;;8.80;100.00
59513;BME280;45330;51.634;5.562;2023-03-14T06:50:48;98786.03;;;8.97;100.00
59513;BME280;45330;51.634;5.562;2023-03-14T06:53:13;98774.00;;;8.94;100.00
59513;BME280;45330;51.634;5.562;2023-03-14T06:55:39;98774.41;;;9.08;100.00
59513;BME280;45330;51.634;5.562;2023-03-14T06:58:04;98769.06;;;9.13;100.00
59513;BME280;45330;51.634;5.562;2023-03-14T07:00:32;98782.25;;;9.32;100.00
59513;BME280;45330;51.634;5.562;2023-03-14T07:02:57;98786.72;;;9.29;100.00
59513;BME280;45330;51.634;5.562;2023-03-14T07:05:22;98785.25;;;9.21;100.00
59513;BME280;45330;51.634;5.562;2023-03-14T07:07:48;98790.31;;;9.24;100.00
59513;BME280;45330;51.634;5.562;2023-03-14T07:10:13;98782.66;;;9.21;100.00
59513;BME280;45330;51.634;5.562;2023-03-14T07:12:39;98801.88;;;9.16;100.00
59513;BME280;45330;51.634;5.562;2023-03-14T07:15:04;98801.06;;;9.14;100.00
59513;BME280;45330;51.634;5.562;2023-03-14T07:17:30;98803.75;;;9.10;100.00
59513;BME280;45330;51.634;5.562;2023-03-14T07:19:55;98807.34;;;9.06;100.00
59513;BME280;45330;51.634;5.562;2023-03-14T07:22:20;98807.59;;;8.99;100.00
59513;BME280;45330;51.634;5.562;2023-03-14T07:24:46;98798.56;;;8.84;100.00
59513;BME280;45330;51.634;5.562;2023-03-14T07:27:11;98900.56;;;8.84;100.00
59513;BME280;45330;51.634;5.562;2023-03-14T07:29:36;98891.53;;;8.06;100.00
59513;BME280;45330;51.634;5.562;2023-03-14T07:32:02;98913.88;;;7.76;100.00
59513;BME280;45330;51.634;5.562;2023-03-14T07:34:28;98916.22;;;7.52;100.00
59513;BME280;45330;51.634;5.562;2023-03-14T07:36:53;98934.59;;;7.42;100.00
59513;BME280;45330;51.634;5.562;2023-03-14T07:39:18;98940.06;;;7.29;100.00
59513;BME280;45330;51.634;5.562;2023-03-14T07:41:44;98947.22;;;7.18;100.00
59513;BME280;45330;51.634;5.562;2023-03-14T07:44:09;98927.81;;;6.98;100.00
59513;BME280;45330;51.634;5.562;2023-03-14T07:46:34;98957.16;;;6.97;100.00
59513;BME280;45330;51.634;5.562;2023-03-14T07:49:00;98969.34;;;6.92;100.00
59513;BME280;45330;51.634;5.562;2023-03-14T07:51:25;98980.75;;;6.82;100.00
59513;BME280;45330;51.634;5.562;2023-03-14T07:53:51;98972.53;;;6.63;100.00
59513;BME280;45330;51.634;5.562;2023-03-14T07:56:16;98969.28;;;6.53;100.00
59513;BME280;45330;51.634;5.562;2023-03-14T07:58:41;98999.13;;;6.69;100.00
59513;BME280;45330;51.634;5.562;2023-03-14T08:01:07;98983.97;;;6.49;100.00
59513;BME280;45330;51.634;5.562;2023-03-14T08:03:32;99001.72;;;6.66;100.00
59513;BME280;45330;51.634;5.562;2023-03-14T08:05:58;99010.44;;;6.64;100.00
59513;BME280;45330;51.634;5.562;2023-03-14T08:08:23;99020.75;;;6.64;100.00
59513;BME280;45330;51.634;5.562;2023-03-14T08:10:48;99029.34;;;6.64;100.00
59513;BME280;45330;51.634;5.562;2023-03-14T08:13:14;99004.69;;;6.48;100.00
59513;BME280;45330;51.634;5.562;2023-03-14T08:15:39;99059.38;;;6.72;100.00
59513;BME280;45330;51.634;5.562;2023-03-14T08:18:05;99070.53;;;6.75;100.00
59513;BME280;45330;51.634;5.562;2023-03-14T08:20:31;99063.72;;;6.68;100.00
59513;BME280;45330;51.634;5.562;2023-03-14T08:22:58;99060.34;;;6.66;100.00
59513;BME280;45330;51.634;5.562;2023-03-14T08:25:24;99093.63;;;6.83;100.00
59513;BME280;45330;51.634;5.562;2023-03-14T08:27:50;99095.44;;;6.79;100.00
59513;BME280;45330;51.634;5.562;2023-03-14T08:30:17;99085.31;;;6.67;100.00
59513;BME280;45330;51.634;5.562;2023-03-14T08:32:43;99093.03;;;6.68;100.00
59513;BME280;45330;51.634;5.562;2023-03-14T08:35:09;99120.25;;;6.88;100.00
59513;BME280;45330;51.634;5.562;2023-03-14T08:37:34;99128.00;;;6.88;100.00
59513;BME280;45330;51.634;5.562;2023-03-14T08:40:01;99121.25;;;6.81;100.00
59513;BME280;45330;51.634;5.562;2023-03-14T08:42:30;99160.66;;;6.94;100.00
59513;BME280;45330;51.634;5.562;2023-03-14T08:44:55;99134.25;;;6.76;100.00
59513;BME280;45330;51.634;5.562;2023-03-14T08:47:21;99138.53;;;6.77;100.00
59513;BME280;45330;51.634;5.562;2023-03-14T08:49:46;99168.53;;;6.86;100.00
59513;BME280;45330;51.634;5.562;2023-03-14T08:52:11;99158.59;;;6.64;100.00
59513;BME280;45330;51.634;5.562;2023-03-14T08:54:37;99193.75;;;6.73;100.00
59513;BME280;45330;51.634;5.562;2023-03-14T08:57:02;99204.28;;;6.64;100.00
59513;BME280;45330;51.634;5.562;2023-03-14T08:59:27;99201.91;;;6.50;100.00
59513;BME280;45330;51.634;5.562;2023-03-14T09:01:53;99175.44;;;6.34;100.00
59513;BME280;45330;51.634;5.562;2023-03-14T09:04:19;99223.44;;;6.49;100.00
59513;BME280;45330;51.634;5.562;2023-03-14T09:06:45;99188.53;;;6.23;100.00
59513;BME280;45330;51.634;5.562;2023-03-14T09:09:10;99240.78;;;6.41;100.00
59513;BME280;45330;51.634;5.562;2023-03-14T09:11:35;99229.81;;;6.26;100.00
59513;BME280;45330;51.634;5.562;2023-03-14T09:14:01;99262.28;;;6.44;100.00
59513;BME280;45330;51.634;5.562;2023-03-14T09:16:26;99256.38;;;6.36;100.00
59513;BME280;45330;51.634;5.562;2023-03-14T09:18:52;99256.28;;;6.41;100.00
59513;BME280;45330;51.634;5.562;2023-03-14T09:21:22;99287.28;;;6.42;100.00
59513;BME280;45330;51.634;5.562;2023-03-14T09:23:48;99271.16;;;6.26;100.00
59513;BME280;45330;51.634;5.562;2023-03-14T09:26:14;99302.25;;;6.17;100.00
59513;BME280;45330;51.634;5.562;2023-03-14T09:28:39;99325.00;;;5.84;100.00
59513;BME280;45330;51.634;5.562;2023-03-14T09:31:10;99373.28;;;5.76;100.00
59513;BME280;45330;51.634;5.562;2023-03-14T09:33:36;99381.25;;;5.54;100.00
59513;BME280;45330;51.634;5.562;2023-03-14T09:36:02;99356.53;;;5.27;100.00
59513;BME280;45330;51.634;5.562;2023-03-14T09:38:28;99398.63;;;5.30;100.00
59513;BME280;45330;51.634;5.562;2023-03-14T09:40:54;99386.81;;;5.00;100.00
59513;BME280;45330;51.634;5.562;2023-03-14T09:43:21;99410.78;;;5.11;100.00
59513;BME280;45330;51.634;5.562;2023-03-14T09:45:48;99429.72;;;5.13;100.00
59513;BME280;45330;51.634;5.562;2023-03-14T09:48:21;99417.63;;;5.17;100.00
59513;BME280;45330;51.634;5.562;2023-03-14T09:50:53;99454.47;;;5.38;100.00
59513;BME280;45330;51.634;5.562;2023-03-14T09:53:40;99469.06;;;5.36;100.00
59513;BME280;45330;51.634;5.562;2023-03-14T09:56:12;99447.59;;;5.33;100.00
59513;BME280;45330;51.634;5.562;2023-03-14T09:58:41;99478.59;;;5.29;100.00
59513;BME280;45330;51.634;5.562;2023-03-14T10:01:11;99480.34;;;5.25;100.00
59513;BME280;45330;51.634;5.562;2023-03-14T10:03:40;99483.78;;;5.21;100.00
59513;BME280;45330;51.634;5.562;2023-03-14T10:06:14;99524.09;;;5.38;100.00
59513;BME280;45330;51.634;5.562;2023-03-14T10:08:43;99535.22;;;5.49;100.00
59513;BME280;45330;51.634;5.562;2023-03-14T10:11:17;99547.13;;;5.70;100.00
59513;BME280;45330;51.634;5.562;2023-03-14T10:14:11;99540.13;;;5.83;100.00
59513;BME280;45330;51.634;5.562;2023-03-14T10:16:44;99556.69;;;5.49;100.00
59513;BME280;45330;51.634;5.562;2023-03-14T10:19:12;99573.00;;;5.56;100.00
59513;BME280;45330;51.634;5.562;2023-03-14T10:21:40;99577.34;;;5.54;100.00
59513;BME280;45330;51.634;5.562;2023-03-14T10:24:26;99601.31;;;5.72;100.00
59513;BME280;45330;51.634;5.562;2023-03-14T10:26:54;99599.56;;;5.77;100.00
59513;BME280;45330;51.634;5.562;2023-03-14T10:29:19;99627.81;;;5.95;100.00
59513;BME280;45330;51.634;5.562;2023-03-14T10:31:55;99635.50;;;6.11;100.00
59513;BME280;45330;51.634;5.562;2023-03-14T10:34:40;99647.63;;;5.99;100.00
59513;BME280;45330;51.634;5.562;2023-03-14T10:37:16;99642.50;;;5.87;100.00
59513;BME280;45330;51.634;5.562;2023-03-14T10:39:47;99664.72;;;6.19;100.00
59513;BME280;45330;51.634;5.562;2023-03-14T10:42:28;99675.84;;;6.27;100.00
59513;BME280;45330;51.634;5.562;2023-03-14T10:45:00;99677.53;;;6.34;100.00
59513;BME280;45330;51.634;5.562;2023-03-14T10:47:27;99667.28;;;6.21;100.00
59513;BME280;45330;51.634;5.562;2023-03-14T10:49:56;99708.44;;;6.44;100.00
59513;BME280;45330;51.634;5.562;2023-03-14T10:52:27;99695.59;;;6.34;100.00
59513;BME280;45330;51.634;5.562;2023-03-14T10:55:10;99697.22;;;6.46;100.00
59513;BME280;45330;51.634;5.562;2023-03-14T10:57:42;99716.19;;;6.45;100.00
59513;BME280;45330;51.634;5.562;2023-03-14T11:00:15;99741.13;;;6.48;100.00
59513;BME280;45330;51.634;5.562;2023-03-14T11:03:04;99751.44;;;6.54;100.00
59513;BME280;45330;51.634;5.562;2023-03-14T11:05:43;99764.25;;;6.68;100.00
59513;BME280;45330;51.634;5.562;2023-03-14T11:08:49;99771.97;;;6.74;100.00
59513;BME280;45330;51.634;5.562;2023-03-14T11:11:22;99760.81;;;6.69;100.00
59513;BME280;45330;51.634;5.562;2023-03-14T11:22:04;99837.03;;;5.77;100.00
59513;BME280;45330;51.634;5.562;2023-03-14T11:27:18;99843.13;;;5.20;100.00
59513;BME280;45330;51.634;5.562;2023-03-14T11:30:35;99846.56;;;5.08;100.00
59513;BME280;45330;51.634;5.562;2023-03-14T11:35:03;99883.53;;;5.15;100.00
59513;BME280;45330;51.634;5.562;2023-03-14T11:37:35;99893.00;;;5.19;100.00
59513;BME280;45330;51.634;5.562;2023-03-14T11:40:16;99896.44;;;5.30;100.00
59513;BME280;45330;51.634;5.562;2023-03-14T11:42:44;99905.88;;;5.44;100.00
59513;BME280;45330;51.634;5.562;2023-03-14T11:45:34;99889.56;;;5.45;100.00
59513;BME280;45330;51.634;5.562;2023-03-14T11:48:25;99912.75;;;5.80;100.00
59513;BME280;45330;51.634;5.562;2023-03-14T11:50:56;99911.88;;;5.95;100.00
59513;BME280;45330;51.634;5.562;2023-03-14T11:53:36;99900.66;;;6.12;100.00
59513;BME280;45330;51.634;5.562;2023-03-14T11:56:11;99922.97;;;6.30;100.00
59513;BME280;45330;51.634;5.562;2023-03-14T11:58:50;99939.31;;;6.37;100.00
59513;BME280;45330;51.634;5.562;2023-03-14T12:01:17;99959.22;;;6.08;100.00
59513;BME280;45330;51.634;5.562;2023-03-14T12:03:49;99962.66;;;5.62;100.00
59513;BME280;45330;51.634;5.562;2023-03-14T12:06:28;99933.41;;;5.26;100.00
59513;BME280;45330;51.634;5.562;2023-03-14T12:08:58;99979.00;;;5.32;100.00
59513;BME280;45330;51.634;5.562;2023-03-14T12:14:24;99972.09;;;5.17;100.00
59513;BME280;45330;51.634;5.562;2023-03-14T12:16:54;99966.06;;;5.12;100.00
59513;BME280;45330;51.634;5.562;2023-03-14T12:21:50;100006.50;;;5.44;100.00
59513;BME280;45330;51.634;5.562;2023-03-14T12:24:19;100002.25;;;5.63;100.00
59513;BME280;45330;51.634;5.562;2023-03-14T12:26:59;99991.88;;;5.41;100.00
59513;BME280;45330;51.634;5.562;2023-03-14T12:29:25;100003.09;;;5.48;100.00
59513;BME280;45330;51.634;5.562;2023-03-14T12:32:22;100006.53;;;5.36;100.00
59513;BME280;45330;51.634;5.562;2023-03-14T12:34:48;100004.78;;;5.33;100.00
59513;BME280;45330;51.634;5.562;2023-03-14T12:37:21;100009.94;;;5.43;100.00
59513;BME280;45330;51.634;5.562;2023-03-14T12:45:27;100028.06;;;5.86;100.00
59513;BME280;45330;51.634;5.562;2023-03-14T12:50:25;100024.56;;;6.40;100.00
59513;BME280;45330;51.634;5.562;2023-03-14T12:53:20;100044.28;;;6.82;100.00
59513;BME280;45330;51.634;5.562;2023-03-14T13:02:23;100058.19;;;6.33;93.12
59513;BME280;45330;51.634;5.562;2023-03-14T13:05:10;100067.69;;;6.33;88.58
59513;BME280;45330;51.634;5.562;2023-03-14T13:10:18;100105.53;;;6.63;91.00
59513;BME280;45330;51.634;5.562;2023-03-14T13:12:57;100111.53;;;6.70;88.85
59513;BME280;45330;51.634;5.562;2023-03-14T13:15:41;100086.59;;;6.61;83.50
59513;BME280;45330;51.634;5.562;2023-03-14T13:18:24;100122.72;;;6.83;86.27
59513;BME280;45330;51.634;5.562;2023-03-14T13:20:59;100116.66;;;6.90;82.19
59513;BME280;45330;51.634;5.562;2023-03-14T13:23:37;100122.69;;;6.97;79.21
59513;BME280;45330;51.634;5.562;2023-03-14T13:26:02;100123.53;;;6.97;75.52
59513;BME280;45330;51.634;5.562;2023-03-14T13:28:29;100139.03;;;7.16;80.56
59513;BME280;45330;51.634;5.562;2023-03-14T13:31:02;100143.34;;;7.11;74.29
59513;BME280;45330;51.634;5.562;2023-03-14T13:33:28;100147.66;;;7.13;70.87
59513;BME280;45330;51.634;5.562;2023-03-14T13:35:56;100169.22;;;7.12;72.85
59513;BME280;45330;51.634;5.562;2023-03-14T13:38:26;100147.66;;;7.06;71.82
59513;BME280;45330;51.634;5.562;2023-03-14T13:40:58;100141.63;;;7.05;72.13
59513;BME280;45330;51.634;5.562;2023-03-14T13:43:38;100177.78;;;7.24;83.05
59513;BME280;45330;51.634;5.562;2023-03-14T13:46:20;100170.00;;;7.33;74.01
59513;BME280;45330;51.634;5.562;2023-03-14T13:48:49;100184.66;;;7.38;75.11
59513;BME280;45330;51.634;5.562;2023-03-14T13:51:18;100169.19;;;7.25;71.59